| time (UTC) | temp C | wind direction | speed KPH | gust KPH | rain 1hr cm | rain 24hr cm | rain mn cm | humidity % | barometer mb |
| 20260506034717 | 21 | 31 | 3.2 | 11.3 | 0.00 | 0.79 | 0.79 | 77 | 1027.1 |
| 20260506033603 | 21 | 29 | 3.2 | 9.7 | 0.00 | 0.79 | 0.79 | 77 | 1027.1 |
| 20260506032703 | 21 | 28 | 4.8 | 11.3 | 0.00 | 0.79 | 0.79 | 77 | 1027.0 |
| 20260506031803 | 21 | 33 | 3.2 | 9.7 | 0.00 | 0.79 | 0.79 | 76 | 1027.0 |
| 20260506030903 | 21 | 24 | 3.2 | 11.3 | 0.00 | 0.79 | 0.79 | 78 | 1027.0 |
| 20260506030003 | 21 | 27 | 3.2 | 12.9 | 0.00 | 0.79 | 0.79 | 77 | 1027.0 |
| 20260506025403 | 21 | 35 | 3.2 | 8.0 | 0.00 | 0.79 | 0.79 | 76 | 1027.0 |
| 20260506024503 | 21 | 14 | 4.8 | 9.7 | 0.00 | 0.79 | 0.79 | 77 | 1027.0 |
| 20260506023818 | 21 | 23 | 3.2 | 8.0 | 0.00 | 0.79 | 0.79 | 77 | 1027.0 |
| 20260506022703 | 21 | 26 | 3.2 | 6.4 | 0.00 | 0.79 | 0.79 | 79 | 1027.0 |
| 20260506021803 | 21 | 23 | 4.8 | 11.3 | 0.00 | 0.79 | 0.79 | 78 | 1027.1 |
| 20260506020903 | 21 | 23 | 4.8 | 8.0 | 0.00 | 0.79 | 0.79 | 81 | 1027.1 |
| 20260506020004 | 20 | 24 | 3.2 | 8.0 | 0.00 | 0.79 | 0.79 | 80 | 1027.1 |
| 20260506015403 | 20 | 14 | 3.2 | 8.0 | 0.00 | 0.79 | 0.79 | 81 | 1027.1 |
| 20260506014503 | 20 | 18 | 4.8 | 11.3 | 0.00 | 0.79 | 0.79 | 80 | 1027.2 |
| 20260506013603 | 20 | 38 | 4.8 | 11.3 | 0.00 | 0.79 | 0.79 | 83 | 1027.1 |
| 20260506012703 | 20 | 27 | 4.8 | 9.7 | 0.00 | 0.79 | 0.79 | 82 | 1027.2 |
| 20260506011803 | 20 | 48 | 3.2 | 11.3 | 0.00 | 0.79 | 0.79 | 84 | 1027.2 |
| 20260506010903 | 20 | 62 | 1.6 | 11.3 | 0.00 | 0.79 | 0.79 | 85 | 1027.4 |
| 20260506010003 | 19 | 0 | 0.0 | 4.8 | 0.00 | 0.79 | 0.79 | 87 | 1027.5 |
| 20260506005617 | 18 | 0 | 0.0 | 3.2 | 0.00 | 0.79 | 0.79 | 88 | 1027.6 |
| 20260506004504 | 18 | 0 | 0.0 | 1.6 | 0.00 | 0.79 | 0.79 | 90 | 1027.7 |
| 20260506003818 | 18 | 0 | 0.0 | 3.2 | 0.00 | 0.79 | 0.79 | 89 | 1027.8 |
| 20260506002703 | 18 | 0 | 0.0 | 4.8 | 0.00 | 0.79 | 0.79 | 91 | 1028.0 |
| 20260506001803 | 18 | 0 | 0.0 | 1.6 | 0.03 | 0.79 | 0.79 | 90 | 1028.3 |
| 20260506000903 | 18 | 0 | 0.0 | 1.6 | 0.05 | 0.79 | 0.79 | 91 | 1028.4 |
| 20260506000003 | 18 | 0 | 0.0 | 3.2 | 0.05 | 0.79 | 0.79 | 92 | 1028.6 |
| 20260505235403 | 17 | 0 | 0.0 | 0.0 | 0.08 | 0.79 | 0.79 | 92 | 1028.6 |
| 20260505234504 | 17 | 0 | 0.0 | 3.2 | 0.08 | 0.79 | 0.79 | 93 | 1028.6 |
| 20260505233603 | 17 | 0 | 0.0 | 1.6 | 0.08 | 0.79 | 0.79 | 94 | 1028.7 |
| 20260505232918 | 17 | 0 | 0.0 | 1.6 | 0.10 | 0.79 | 0.79 | 93 | 1028.8 |
| 20260505231804 | 17 | 0 | 0.0 | 0.0 | 0.10 | 0.76 | 0.76 | 93 | 1029.0 |
| 20260505231117 | 17 | 0 | 0.0 | 3.2 | 0.13 | 0.76 | 0.76 | 94 | 1029.1 |
| 20260505230003 | 16 | 0 | 0.0 | 3.2 | 0.15 | 0.71 | 0.71 | 94 | 1029.1 |
| 20260505225403 | 16 | 0 | 0.0 | 3.2 | 0.15 | 0.71 | 0.71 | 93 | 1029.2 |
| 20260505224503 | 16 | 41 | 0.0 | 3.2 | 0.15 | 0.71 | 0.71 | 94 | 1029.2 |
| 20260505223603 | 16 | 40 | 0.0 | 4.8 | 0.15 | 0.71 | 0.71 | 94 | 1029.2 |
| 20260505222703 | 16 | 0 | 0.0 | 3.2 | 0.15 | 0.69 | 0.69 | 94 | 1029.2 |
| 20260505221803 | 16 | 0 | 0.0 | 3.2 | 0.13 | 0.66 | 0.66 | 94 | 1029.3 |
| 20260505221117 | 16 | 0 | 0.0 | 3.2 | 0.13 | 0.64 | 0.64 | 94 | 1029.3 |
| 20260505220003 | 16 | 0 | 0.0 | 3.2 | 0.05 | 0.56 | 0.58 | 94 | 1029.3 |
| 20260505215403 | 16 | 0 | 0.0 | 1.6 | 0.05 | 0.56 | 0.56 | 94 | 1029.3 |
| 20260505214503 | 16 | 0 | 0.0 | 0.0 | 0.05 | 0.53 | 0.53 | 94 | 1029.2 |
| 20260505213603 | 16 | 37 | 0.0 | 6.4 | 0.05 | 0.53 | 0.53 | 94 | 1029.3 |
| 20260505212918 | 16 | 34 | 1.6 | 6.4 | 0.05 | 0.53 | 0.53 | 94 | 1029.2 |
| 20260505211803 | 16 | 31 | 0.0 | 4.8 | 0.08 | 0.53 | 0.53 | 94 | 1029.3 |
| 20260505210903 | 16 | 0 | 0.0 | 4.8 | 0.08 | 0.51 | 0.51 | 94 | 1029.4 |
| 20260505210003 | 16 | 0 | 0.0 | 3.2 | 0.13 | 0.51 | 0.51 | 94 | 1029.4 |
| 20260505205403 | 16 | 0 | 0.0 | 3.2 | 0.15 | 0.51 | 0.51 | 94 | 1029.4 |
| 20260505204717 | 16 | 0 | 0.0 | 3.2 | 0.18 | 0.51 | 0.51 | 94 | 1029.4 |
| 20260505203603 | 15 | 0 | 0.0 | 3.2 | 0.18 | 0.51 | 0.51 | 94 | 1029.4 |
| 20260505202703 | 15 | 0 | 0.0 | 0.0 | 0.15 | 0.48 | 0.48 | 94 | 1029.4 |
| 20260505201803 | 15 | 0 | 0.0 | 0.0 | 0.15 | 0.46 | 0.46 | 94 | 1029.3 |
| 20260505200903 | 15 | 0 | 0.0 | 0.0 | 0.13 | 0.43 | 0.43 | 94 | 1029.4 |
| 20260505200217 | 15 | 0 | 0.0 | 0.0 | 0.08 | 0.41 | 0.41 | 94 | 1029.3 |
| 20260505195403 | 15 | 0 | 0.0 | 0.0 | 0.03 | 0.33 | 0.33 | 93 | 1029.1 |
| 20260505194503 | 15 | 0 | 0.0 | 0.0 | 0.00 | 0.33 | 0.33 | 93 | 1029.0 |
| 20260505193603 | 15 | 0 | 0.0 | 0.0 | 0.05 | 0.33 | 0.33 | 93 | 1028.9 |
| 20260505192919 | 15 | 0 | 0.0 | 0.0 | 0.13 | 0.33 | 0.33 | 94 | 1028.9 |
| 20260505191804 | 14 | 0 | 0.0 | 0.0 | 0.15 | 0.33 | 0.33 | 93 | 1028.8 |
| 20260505191118 | 14 | 0 | 0.0 | 0.0 | 0.15 | 0.33 | 0.33 | 93 | 1028.7 |
| 20260505190004 | 14 | 0 | 0.0 | 0.0 | 0.15 | 0.33 | 0.33 | 93 | 1028.8 |
| 20260505185403 | 14 | 0 | 0.0 | 1.6 | 0.15 | 0.33 | 0.33 | 93 | 1028.8 |
| 20260505184503 | 14 | 0 | 0.0 | 1.6 | 0.15 | 0.33 | 0.33 | 93 | 1028.7 |
| 20260505183603 | 14 | 0 | 0.0 | 0.0 | 0.13 | 0.28 | 0.28 | 93 | 1028.7 |
| 20260505182703 | 14 | 0 | 0.0 | 0.0 | 0.05 | 0.20 | 0.20 | 93 | 1028.7 |
| 20260505181803 | 14 | 0 | 0.0 | 0.0 | 0.03 | 0.18 | 0.18 | 93 | 1028.6 |
| 20260505180903 | 14 | 0 | 0.0 | 0.0 | 0.00 | 0.15 | 0.15 | 93 | 1028.6 |
| 20260505180003 | 14 | 0 | 0.0 | 0.0 | 0.00 | 0.15 | 0.15 | 93 | 1028.6 |
| 20260505175403 | 13 | 0 | 0.0 | 0.0 | 0.00 | 0.15 | 0.15 | 93 | 1028.6 |
| 20260505174503 | 13 | 0 | 0.0 | 0.0 | 0.00 | 0.15 | 0.15 | 93 | 1028.7 |
| 20260505173603 | 13 | 0 | 0.0 | 0.0 | 0.00 | 0.15 | 0.15 | 93 | 1028.7 |
| 20260505172703 | 13 | 0 | 0.0 | 0.0 | 0.00 | 0.15 | 0.15 | 93 | 1028.7 |
| 20260505171803 | 13 | 0 | 0.0 | 0.0 | 0.03 | 0.15 | 0.15 | 93 | 1028.7 |
| 20260505170903 | 13 | 0 | 0.0 | 0.0 | 0.05 | 0.15 | 0.15 | 93 | 1028.6 |
| 20260505170003 | 14 | 0 | 0.0 | 0.0 | 0.05 | 0.15 | 0.15 | 93 | 1028.7 |
| 20260505165403 | 14 | 0 | 0.0 | 0.0 | 0.05 | 0.15 | 0.15 | 93 | 1028.6 |
| 20260505164503 | 14 | 0 | 0.0 | 0.0 | 0.05 | 0.15 | 0.15 | 93 | 1028.6 |
| 20260505163818 | 14 | 0 | 0.0 | 0.0 | 0.05 | 0.15 | 0.15 | 93 | 1028.6 |
| 20260505162703 | 14 | 0 | 0.0 | 0.0 | 0.05 | 0.15 | 0.15 | 93 | 1028.6 |
| 20260505161803 | 13 | 0 | 0.0 | 1.6 | 0.05 | 0.15 | 0.15 | 93 | 1028.7 |
| 20260505160903 | 13 | 0 | 0.0 | 0.0 | 0.03 | 0.13 | 0.13 | 93 | 1028.7 |
| 20260505152703 | 13 | 0 | 0.0 | 0.0 | 0.00 | 0.10 | 0.10 | 92 | 1028.8 |
| 20260505151803 | 13 | 0 | 0.0 | 0.0 | 0.00 | 0.10 | 0.10 | 92 | 1028.9 |
| 20260505151118 | 13 | 0 | 0.0 | 0.0 | 0.03 | 0.10 | 0.10 | 92 | 1029.0 |
| 20260505150217 | 13 | 0 | 0.0 | 0.0 | 0.03 | 0.10 | 0.10 | 92 | 1029.1 |
| 20260505130217 | 12 | 0 | 0.0 | 0.0 | 0.00 | 0.00 | 0.00 | 91 | 1030.1 |
| 20260505124718 | 12 | 0 | 0.0 | 0.0 | 0.00 | 0.00 | 0.00 | 91 | 1030.3 |
| 20260505123817 | 12 | 0 | 0.0 | 0.0 | 0.00 | 0.00 | 0.00 | 91 | 1030.2 |
| 20260505122703 | 12 | 0 | 0.0 | 0.0 | 0.00 | 0.00 | 0.00 | 91 | 1030.3 |
| 20260505121803 | 12 | 0 | 0.0 | 0.0 | 0.00 | 0.00 | 0.00 | 91 | 1030.2 |
| 20260505121117 | 12 | 0 | 0.0 | 0.0 | 0.00 | 0.00 | 0.00 | 91 | 1030.3 |
| 20260505120004 | 12 | 0 | 0.0 | 0.0 | 0.00 | 0.00 | 0.00 | 91 | 1030.3 |
| 20260505115403 | 12 | 0 | 0.0 | 0.0 | 0.00 | 0.00 | 0.00 | 91 | 1030.3 |
| 20260505114503 | 12 | 0 | 0.0 | 0.0 | 0.00 | 0.00 | 0.00 | 90 | 1030.4 |
| 20260505113603 | 12 | 0 | 0.0 | 0.0 | 0.00 | 0.00 | 0.00 | 89 | 1030.4 |
| 20260505112703 | 12 | 0 | 0.0 | 0.0 | 0.00 | 0.00 | 0.00 | 89 | 1030.4 |
| 20260505111803 | 12 | 0 | 0.0 | 0.0 | 0.00 | 0.00 | 0.00 | 88 | 1030.5 |
| 20260505110903 | 12 | 0 | 0.0 | 0.0 | 0.00 | 0.00 | 0.00 | 89 | 1030.5 |
| 20260505101803 | 12 | 0 | 0.0 | 1.6 | 0.00 | 0.00 | 0.00 | 89 | 1030.9 |
| 20260505100903 | 12 | 0 | 0.0 | 1.6 | 0.00 | 0.00 | 0.00 | 88 | 1031.0 |
| 20260505100003 | 12 | 0 | 0.0 | 0.0 | 0.00 | 0.00 | 0.00 | 87 | 1031.0 |
| 20260505095403 | 12 | 0 | 0.0 | 0.0 | 0.00 | 0.00 | 0.00 | 87 | 1030.9 |
| 20260505094503 | 12 | 0 | 0.0 | 0.0 | 0.00 | 0.00 | 0.00 | 87 | 1030.9 |
| 20260505093603 | 12 | 0 | 0.0 | 0.0 | 0.00 | 0.00 | 0.00 | 87 | 1030.9 |
| 20260505092703 | 12 | 0 | 0.0 | 0.0 | 0.00 | 0.00 | 0.00 | 87 | 1031.0 |
| 20260505091803 | 12 | 0 | 0.0 | 0.0 | 0.00 | 0.00 | 0.00 | 87 | 1031.0 |
| 20260505090903 | 12 | 0 | 0.0 | 0.0 | 0.00 | 0.00 | 0.00 | 86 | 1030.9 |
| 20260505090003 | 12 | 0 | 0.0 | 0.0 | 0.00 | 0.00 | 0.00 | 86 | 1030.9 |
| 20260505085403 | 12 | 0 | 0.0 | 0.0 | 0.00 | 0.00 | 0.00 | 86 | 1030.8 |
| 20260505084503 | 13 | 0 | 0.0 | 0.0 | 0.00 | 0.00 | 0.00 | 86 | 1030.8 |
| 20260505083603 | 13 | 0 | 0.0 | 0.0 | 0.00 | 0.00 | 0.00 | 86 | 1030.7 |
| 20260505082703 | 13 | 0 | 0.0 | 0.0 | 0.00 | 0.00 | 0.00 | 85 | 1030.8 |
| 20260505081803 | 13 | 0 | 0.0 | 0.0 | 0.00 | 0.00 | 0.00 | 85 | 1030.8 |
| 20260505081117 | 13 | 0 | 0.0 | 0.0 | 0.00 | 0.00 | 0.00 | 85 | 1030.8 |
| 20260505080003 | 13 | 0 | 0.0 | 0.0 | 0.00 | 0.00 | 0.00 | 85 | 1030.8 |
| 20260505075403 | 13 | 0 | 0.0 | 0.0 | 0.00 | 0.00 | 0.00 | 85 | 1030.8 |
| 20260505074503 | 13 | 0 | 0.0 | 0.0 | 0.00 | 0.00 | 0.00 | 84 | 1030.7 |
| 20260505073603 | 13 | 0 | 0.0 | 0.0 | 0.00 | 0.00 | 0.00 | 84 | 1030.7 |
| 20260505072703 | 14 | 0 | 0.0 | 0.0 | 0.00 | 0.00 | 0.00 | 82 | 1030.5 |
| 20260505071803 | 14 | 0 | 0.0 | 0.0 | 0.00 | 0.00 | 0.00 | 82 | 1030.5 |
| 20260505070903 | 14 | 0 | 0.0 | 0.0 | 0.00 | 0.00 | 0.00 | 82 | 1030.4 |
| 20260505070003 | 14 | 0 | 0.0 | 0.0 | 0.00 | 0.00 | 0.00 | 81 | 1030.4 |
| 20260505065618 | 15 | 0 | 0.0 | 0.0 | 0.00 | 0.00 | 0.00 | 81 | 1030.4 |
| 20260505064503 | 15 | 0 | 0.0 | 0.0 | 0.00 | 0.00 | 0.00 | 81 | 1030.3 |
| 20260505063603 | 15 | 0 | 0.0 | 0.0 | 0.00 | 0.00 | 0.00 | 80 | 1030.4 |
| 20260505062703 | 15 | 0 | 0.0 | 0.0 | 0.00 | 0.00 | 0.00 | 79 | 1030.4 |
| 20260505061803 | 15 | 62 | 0.0 | 1.6 | 0.00 | 0.00 | 0.00 | 79 | 1030.3 |
| 20260505060903 | 16 | 61 | 1.6 | 3.2 | 0.00 | 0.00 | 0.00 | 78 | 1030.4 |
| 20260505060003 | 16 | 0 | 0.0 | 3.2 | 0.00 | 0.00 | 0.00 | 77 | 1030.4 |
| 20260505055617 | 16 | 0 | 0.0 | 0.0 | 0.00 | 0.00 | 0.00 | 77 | 1030.4 |
| 20260505054717 | 16 | 0 | 0.0 | 0.0 | 0.00 | 0.00 | 0.00 | 76 | 1030.4 |
| 20260505053603 | 17 | 0 | 0.0 | 0.0 | 0.00 | 0.00 | 0.00 | 74 | 1030.3 |
| 20260505052703 | 17 | 0 | 0.0 | 0.0 | 0.00 | 0.00 | 0.00 | 73 | 1030.2 |
| 20260505051803 | 17 | 0 | 0.0 | 0.0 | 0.00 | 0.00 | 0.00 | 72 | 1030.2 |
| 20260505050903 | 17 | 62 | 0.0 | 1.6 | 0.00 | 0.00 | 0.00 | 72 | 1030.2 |
| 20260505040904 | 18 | 25 | 1.6 | 6.4 | 0.00 | 0.00 | 0.00 | 67 | 1030.2 |
| 20260505040004 | 19 | 34 | 3.2 | 6.4 | 0.00 | 0.00 | 0.00 | 68 | 1030.3 |
| 20260505035403 | 19 | 63 | 3.2 | 8.0 | 0.00 | 0.00 | 0.00 | 67 | 1030.3 |